Time;durP1;ratioP1;P1;durP2;ratioP2;P2;SDS_P1;SDS_P2;PMS_P1;PMS_P2;Temp;Humidity;BMP_temperature;BMP_pressure;BME280_temperature;BME280_humidity;BME280_pressure;Samples;Min_cycle;Max_cycle;Signal;HPM_P1;HPM_P2
2024/01/26 00:00:17;;;;;;;0.20;0.20;;;11.00;68.40;;;;;;5069126;28;20060;-65
2024/01/26 00:02:46;;;;;;;0.20;0.20;;;11.00;68.60;;;;;;5068030;28;20056;-63
2024/01/26 00:05:15;;;;;;;0.20;0.20;;;11.00;68.80;;;;;;5055619;28;20066;-62
2024/01/26 00:07:44;;;;;;;0.30;0.30;;;11.00;69.00;;;;;;5067024;28;20135;-61
2024/01/26 00:10:13;;;;;;;0.20;0.20;;;11.00;69.00;;;;;;5070490;28;20403;-61
2024/01/26 00:12:41;;;;;;;0.22;0.22;;;10.90;69.10;;;;;;5074020;28;20063;-62
2024/01/26 00:15:11;;;;;;;0.30;0.30;;;10.90;69.30;;;;;;5059063;28;20060;-61
2024/01/26 00:17:40;;;;;;;0.20;0.20;;;10.90;69.30;;;;;;5066167;28;20080;-62
2024/01/26 00:20:09;;;;;;;0.20;0.20;;;11.00;69.50;;;;;;5065585;28;20143;-59
2024/01/26 00:22:37;;;;;;;0.20;0.20;;;11.00;69.60;;;;;;5074142;28;20052;-63
2024/01/26 00:25:06;;;;;;;0.20;0.20;;;11.00;69.60;;;;;;5059580;28;20528;-63
2024/01/26 00:27:35;;;;;;;0.20;0.20;;;10.90;69.50;;;;;;5068154;28;20059;-61
2024/01/26 00:30:06;;;;;;;0.20;0.20;;;10.90;69.60;;;;;;5063428;28;20083;-61
2024/01/26 00:32:36;;;;;;;0.20;0.20;;;10.90;69.90;;;;;;5069870;28;20079;-64
2024/01/26 00:35:06;;;;;;;0.20;0.20;;;10.90;69.90;;;;;;5066833;28;20527;-63
2024/01/26 00:37:34;;;;;;;0.20;0.20;;;10.90;69.90;;;;;;5068128;28;20059;-63
2024/01/26 00:40:03;;;;;;;0.30;0.30;;;10.90;69.90;;;;;;5069685;28;20052;-63
2024/01/26 00:42:31;;;;;;;0.20;0.20;;;10.80;69.90;;;;;;5065566;28;20048;-64
2024/01/26 00:45:00;;;;;;;0.20;0.20;;;10.80;70.00;;;;;;5060755;28;20105;-63
2024/01/26 00:47:28;;;;;;;0.20;0.20;;;10.70;70.30;;;;;;5067798;28;20048;-61
2024/01/26 00:49:58;;;;;;;0.20;0.20;;;10.80;71.30;;;;;;5071857;28;20458;-63
2024/01/26 00:52:27;;;;;;;0.20;0.20;;;10.80;72.10;;;;;;5065776;28;20105;-64
2024/01/26 00:54:56;;;;;;;0.20;0.20;;;10.80;72.50;;;;;;5072260;28;20056;-60
2024/01/26 00:57:24;;;;;;;0.20;0.20;;;10.90;72.80;;;;;;5062619;28;20095;-63
2024/01/26 00:59:53;;;;;;;0.20;0.20;;;11.00;73.00;;;;;;5067168;28;20502;-62
2024/01/26 01:02:21;;;;;;;0.20;0.20;;;11.00;73.10;;;;;;5062760;28;20060;-61
2024/01/26 01:04:49;;;;;;;0.20;0.20;;;11.10;73.80;;;;;;5064338;28;20056;-62
2024/01/26 01:07:19;;;;;;;0.20;0.20;;;11.10;74.00;;;;;;5052704;28;20076;-61
2024/01/26 01:09:47;;;;;;;0.20;0.20;;;11.10;74.00;;;;;;5056745;28;20589;-61
2024/01/26 01:12:15;;;;;;;0.20;0.20;;;11.10;74.30;;;;;;5068854;28;20107;-61
2024/01/26 01:14:44;;;;;;;0.20;0.20;;;11.10;74.30;;;;;;5065695;28;20071;-62
2024/01/26 01:17:12;;;;;;;0.20;0.20;;;11.20;74.50;;;;;;5061570;28;20068;-63
2024/01/26 01:19:42;;;;;;;0.20;0.20;;;11.20;74.70;;;;;;5064009;28;20247;-64
2024/01/26 01:22:10;;;;;;;0.20;0.20;;;11.20;75.40;;;;;;5069564;28;20052;-62
2024/01/26 01:24:40;;;;;;;0.20;0.20;;;11.20;74.60;;;;;;5067810;28;20056;-62
2024/01/26 01:27:08;;;;;;;0.20;0.20;;;11.20;74.70;;;;;;5056934;28;20063;-63
2024/01/26 01:29:36;;;;;;;0.20;0.20;;;11.10;74.80;;;;;;5059498;28;20064;-61
2024/01/26 01:32:05;;;;;;;0.22;0.22;;;11.20;75.00;;;;;;5067980;28;20611;-62
2024/01/26 01:34:34;;;;;;;0.20;0.20;;;11.20;75.00;;;;;;5060809;28;20058;-61
2024/01/26 01:37:02;;;;;;;0.30;0.30;;;11.20;75.20;;;;;;5055437;28;20045;-62
2024/01/26 01:39:31;;;;;;;0.20;0.20;;;11.20;74.50;;;;;;5070611;28;20064;-63
2024/01/26 01:42:00;;;;;;;0.20;0.20;;;11.20;75.10;;;;;;5085878;28;20044;-60
2024/01/26 01:44:29;;;;;;;0.20;0.20;;;11.20;75.10;;;;;;5067783;28;20147;-64
2024/01/26 01:46:57;;;;;;;0.20;0.20;;;11.20;75.20;;;;;;5066494;28;20143;-62
2024/01/26 01:49:26;;;;;;;0.20;0.20;;;11.10;75.20;;;;;;5065391;28;20056;-63
2024/01/26 01:51:58;;;;;;;0.20;0.20;;;11.10;75.40;;;;;;5063373;28;20075;-63
2024/01/26 01:54:29;;;;;;;0.20;0.20;;;11.10;75.40;;;;;;5064435;28;20044;-62
2024/01/26 01:57:02;;;;;;;0.22;0.22;;;11.10;75.40;;;;;;5061740;28;20064;-63
2024/01/26 01:59:31;;;;;;;0.20;0.20;;;11.10;75.40;;;;;;5065776;28;20578;-62
2024/01/26 02:02:01;;;;;;;0.20;0.20;;;11.10;75.60;;;;;;5057216;28;20060;-63
2024/01/26 02:04:29;;;;;;;0.20;0.20;;;11.00;75.50;;;;;;5062640;28;20514;-63
2024/01/26 02:06:59;;;;;;;0.20;0.20;;;11.00;75.50;;;;;;5067028;28;20409;-63
2024/01/26 02:09:28;;;;;;;0.20;0.20;;;11.00;75.70;;;;;;5059310;28;20128;-63
2024/01/26 02:11:57;;;;;;;0.30;0.30;;;11.00;75.60;;;;;;5066204;28;20067;-63
2024/01/26 02:14:27;;;;;;;0.30;0.30;;;11.00;75.90;;;;;;5062968;28;20697;-62
2024/01/26 02:16:57;;;;;;;0.20;0.20;;;11.00;75.70;;;;;;5062633;28;20071;-63
2024/01/26 02:19:27;;;;;;;0.20;0.20;;;11.00;75.70;;;;;;5060861;28;20087;-62
2024/01/26 02:21:55;;;;;;;0.20;0.20;;;11.00;75.70;;;;;;5060835;28;20053;-59
2024/01/26 02:24:25;;;;;;;0.20;0.20;;;11.00;75.70;;;;;;5066129;28;20060;-61
2024/01/26 02:26:54;;;;;;;0.30;0.30;;;10.90;75.80;;;;;;5064362;28;20518;-60
2024/01/26 02:29:22;;;;;;;0.20;0.20;;;10.90;75.80;;;;;;5061124;28;20582;-61
2024/01/26 02:31:50;;;;;;;0.28;0.28;;;10.90;75.90;;;;;;5068113;28;20103;-62
2024/01/26 02:34:19;;;;;;;0.20;0.20;;;11.00;75.90;;;;;;5063736;28;20036;-61
2024/01/26 02:36:48;;;;;;;1.42;1.33;;;11.00;75.80;;;;;;5062416;28;20056;-62
2024/01/26 02:39:16;;;;;;;7.30;2.08;;;11.00;76.00;;;;;;5059972;28;20096;-64
2024/01/26 02:41:46;;;;;;;2.97;2.22;;;11.00;75.80;;;;;;5069006;28;20172;-63
2024/01/26 02:44:14;;;;;;;9.23;3.13;;;11.00;75.90;;;;;;5058661;28;20056;-63
2024/01/26 02:46:46;;;;;;;25.05;8.27;;;11.00;76.30;;;;;;5067139;28;20064;-63
2024/01/26 02:49:14;;;;;;;10.55;2.22;;;11.00;76.10;;;;;;5062667;28;20052;-62
2024/01/26 02:51:42;;;;;;;8.23;3.05;;;11.10;76.10;;;;;;5069562;28;20052;-61
2024/01/26 02:54:11;;;;;;;2.22;2.00;;;11.10;75.90;;;;;;5063004;28;20059;-63
2024/01/26 02:56:39;;;;;;;4.28;2.30;;;11.10;75.80;;;;;;5065995;28;20052;-62
2024/01/26 02:59:09;;;;;;;18.27;3.83;;;11.10;75.90;;;;;;5052410;28;20548;-63
2024/01/26 03:01:37;;;;;;;5.07;1.65;;;11.10;75.70;;;;;;5066139;28;20052;-61
2024/01/26 03:04:06;;;;;;;66.82;13.45;;;11.10;75.70;;;;;;5063456;28;20391;-60
2024/01/26 03:06:34;;;;;;;12.38;5.57;;;11.10;75.90;;;;;;5066436;28;20059;-62
2024/01/26 03:09:03;;;;;;;8.43;4.70;;;11.20;76.80;;;;;;5059164;28;20143;-62
2024/01/26 03:11:39;;;;;;;7.15;2.58;;;11.20;76.00;;;;;;5063434;28;20056;-64
2024/01/26 03:14:09;;;;;;;4.03;1.70;;;11.20;75.80;;;;;;5059182;28;20056;-62
2024/01/26 03:16:40;;;;;;;3.55;1.95;;;11.30;76.00;;;;;;5068633;28;20060;-64
2024/01/26 03:19:09;;;;;;;6.40;2.53;;;11.30;75.60;;;;;;5052003;28;20600;-64
2024/01/26 03:21:42;;;;;;;17.42;4.43;;;11.30;75.60;;;;;;5068131;28;20051;-60
2024/01/26 03:24:11;;;;;;;16.08;4.80;;;11.30;75.50;;;;;;5069736;28;20044;-64
2024/01/26 03:26:39;;;;;;;2.13;1.50;;;11.30;75.70;;;;;;5064293;28;20059;-63
2024/01/26 03:29:09;;;;;;;2.42;2.20;;;11.40;75.80;;;;;;5054876;28;20410;-62
2024/01/26 03:31:38;;;;;;;5.85;3.55;;;11.40;75.60;;;;;;5065118;28;20511;-63
2024/01/26 03:34:06;;;;;;;11.48;3.60;;;11.40;75.60;;;;;;5054882;28;20192;-62
2024/01/26 03:36:34;;;;;;;2.08;1.70;;;11.40;75.70;;;;;;5058059;28;20051;-63
2024/01/26 03:39:03;;;;;;;17.92;2.63;;;11.40;75.70;;;;;;5064525;28;20131;-63
2024/01/26 03:41:32;;;;;;;7.25;2.25;;;11.50;75.70;;;;;;5071276;28;20095;-66
2024/01/26 03:44:00;;;;;;;7.93;2.92;;;11.50;75.60;;;;;;5070937;28;20056;-65
2024/01/26 03:46:31;;;;;;;7.55;3.38;;;11.60;75.30;;;;;;5065879;28;20418;-62
2024/01/26 03:48:59;;;;;;;2.78;1.83;;;11.60;75.10;;;;;;5063857;28;20053;-63
2024/01/26 03:51:28;;;;;;;4.88;2.75;;;11.60;75.10;;;;;;5073778;28;20050;-62
2024/01/26 03:53:59;;;;;;;3.58;2.35;;;11.60;75.10;;;;;;5069479;28;20063;-62
2024/01/26 03:56:27;;;;;;;3.72;2.30;;;11.50;75.20;;;;;;5060012;28;20167;-63
2024/01/26 03:58:56;;;;;;;5.97;2.83;;;11.50;75.30;;;;;;5069471;28;20040;-63
2024/01/26 04:01:24;;;;;;;4.57;2.78;;;11.60;75.40;;;;;;5060270;28;20898;-63
2024/01/26 04:03:54;;;;;;;5.95;2.28;;;11.60;75.20;;;;;;5064354;28;20071;-63
2024/01/26 04:06:22;;;;;;;5.30;2.05;;;11.70;75.40;;;;;;5062653;28;20084;-63
2024/01/26 04:08:51;;;;;;;5.07;3.40;;;11.60;75.00;;;;;;5060921;28;20553;-64
2024/01/26 04:11:19;;;;;;;5.05;3.65;;;11.50;75.00;;;;;;5062463;28;20128;-63
2024/01/26 04:13:47;;;;;;;15.77;6.43;;;11.40;75.10;;;;;;5068322;28;20064;-64
2024/01/26 04:16:16;;;;;;;36.88;13.10;;;11.30;75.30;;;;;;5068122;28;20594;-63
2024/01/26 04:18:46;;;;;;;4.22;1.95;;;11.30;75.60;;;;;;5068503;28;20063;-64
2024/01/26 04:21:16;;;;;;;4.97;2.75;;;11.30;75.80;;;;;;5055816;28;20136;-61
2024/01/26 04:23:47;;;;;;;5.97;2.45;;;11.20;75.60;;;;;;5064660;28;20681;-64
2024/01/26 04:26:16;;;;;;;6.07;3.20;;;11.20;75.50;;;;;;5062625;28;20060;-65
2024/01/26 04:28:45;;;;;;;4.25;2.45;;;11.10;75.60;;;;;;5069446;28;20056;-61
2024/01/26 04:31:14;;;;;;;6.82;2.72;;;11.20;75.80;;;;;;5057871;28;20059;-62
2024/01/26 04:33:42;;;;;;;8.63;4.07;;;11.20;75.70;;;;;;5063865;28;20502;-61
2024/01/26 04:36:11;;;;;;;2.63;2.17;;;11.20;75.60;;;;;;5060891;28;20087;-62
2024/01/26 04:38:41;;;;;;;12.88;3.80;;;11.30;75.90;;;;;;5068065;28;20080;-62
2024/01/26 04:41:09;;;;;;;11.00;3.35;;;11.30;75.70;;;;;;5067799;28;20521;-67
2024/01/26 04:43:38;;;;;;;6.50;2.50;;;11.40;75.70;;;;;;5068137;28;20079;-62
2024/01/26 04:46:06;;;;;;;11.68;4.40;;;11.40;75.40;;;;;;5075160;28;20060;-64
2024/01/26 04:48:36;;;;;;;4.40;2.72;;;11.40;76.20;;;;;;5066076;28;20053;-62
2024/01/26 04:51:05;;;;;;;7.53;3.50;;;11.40;75.40;;;;;;5077884;28;20484;-62
2024/01/26 04:53:33;;;;;;;0.20;0.20;;;11.40;75.60;;;;;;5060733;28;20050;-60
2024/01/26 04:56:04;;;;;;;0.20;0.20;;;11.30;75.60;;;;;;5064662;28;20048;-63
2024/01/26 04:58:32;;;;;;;0.20;0.20;;;11.40;75.60;;;;;;5068776;28;20048;-62
2024/01/26 05:01:00;;;;;;;0.20;0.20;;;11.40;75.50;;;;;;5062447;28;20062;-62
2024/01/26 05:03:29;;;;;;;0.20;0.20;;;11.30;75.60;;;;;;5058772;28;20063;-62
2024/01/26 05:05:58;;;;;;;0.20;0.20;;;11.40;75.60;;;;;;5072938;28;20048;-60
2024/01/26 05:08:26;;;;;;;0.20;0.20;;;11.30;75.40;;;;;;5062908;28;20585;-60
2024/01/26 05:10:54;;;;;;;0.20;0.20;;;11.20;75.60;;;;;;5068652;28;20079;-62
2024/01/26 05:13:24;;;;;;;0.20;0.20;;;11.20;75.80;;;;;;5059034;28;20138;-62
2024/01/26 05:15:52;;;;;;;0.20;0.20;;;11.30;75.90;;;;;;5060033;28;20075;-62
2024/01/26 05:18:21;;;;;;;0.30;0.30;;;11.30;75.70;;;;;;5065752;28;20058;-63
2024/01/26 05:20:49;;;;;;;0.20;0.20;;;11.30;75.60;;;;;;5063721;28;20084;-63
2024/01/26 05:23:18;;;;;;;0.20;0.20;;;11.30;76.50;;;;;;5081040;28;20134;-62
2024/01/26 05:25:47;;;;;;;0.20;0.20;;;11.30;75.70;;;;;;5058918;28;20052;-63
2024/01/26 05:28:15;;;;;;;0.20;0.20;;;11.30;75.70;;;;;;5062725;28;20062;-62
2024/01/26 05:30:45;;;;;;;0.20;0.20;;;11.30;75.90;;;;;;5062257;28;20390;-60
2024/01/26 05:33:14;;;;;;;0.30;0.30;;;11.40;75.90;;;;;;5062277;28;20147;-65
2024/01/26 05:35:43;;;;;;;0.20;0.20;;;11.50;75.80;;;;;;5070454;28;20538;-63
2024/01/26 05:38:11;;;;;;;0.20;0.20;;;11.60;76.40;;;;;;5074037;28;20506;-61
2024/01/26 05:40:40;;;;;;;0.20;0.20;;;11.60;75.40;;;;;;5071366;28;20052;-62
2024/01/26 05:43:08;;;;;;;0.20;0.20;;;11.70;75.30;;;;;;5060023;28;20052;-63
2024/01/26 05:45:37;;;;;;;0.20;0.20;;;11.70;75.20;;;;;;5071568;28;20121;-63
2024/01/26 05:48:08;;;;;;;0.20;0.20;;;11.70;75.00;;;;;;5063600;28;20060;-63
2024/01/26 05:50:38;;;;;;;0.20;0.20;;;11.70;74.90;;;;;;5073466;28;20409;-62
2024/01/26 05:53:08;;;;;;;0.20;0.20;;;11.70;75.00;;;;;;5061838;28;20059;-66
2024/01/26 05:55:36;;;;;;;0.20;0.20;;;11.60;75.00;;;;;;5071410;28;20250;-63
2024/01/26 05:58:05;;;;;;;0.20;0.20;;;11.60;75.30;;;;;;5071115;28;20052;-61
2024/01/26 06:00:33;;;;;;;0.20;0.20;;;11.60;75.50;;;;;;5067542;28;21405;-63
2024/01/26 06:03:02;;;;;;;0.20;0.20;;;11.60;75.50;;;;;;5080345;28;20075;-62
2024/01/26 06:05:32;;;;;;;0.20;0.20;;;11.60;75.40;;;;;;5079194;28;20505;-62
2024/01/26 06:08:00;;;;;;;0.20;0.20;;;11.50;75.50;;;;;;5066063;28;20064;-61
2024/01/26 06:10:28;;;;;;;0.20;0.20;;;11.50;75.70;;;;;;5068933;28;20068;-63
2024/01/26 06:12:57;;;;;;;0.20;0.20;;;11.60;75.70;;;;;;5071818;28;20047;-62
2024/01/26 06:15:25;;;;;;;0.20;0.20;;;11.70;75.50;;;;;;5068204;28;20139;-64
2024/01/26 06:17:54;;;;;;;0.20;0.20;;;11.70;75.40;;;;;;5069830;28;20056;-63
2024/01/26 06:20:22;;;;;;;0.20;0.20;;;11.80;75.40;;;;;;5071036;28;20058;-62
2024/01/26 06:22:52;;;;;;;0.25;0.25;;;11.80;75.30;;;;;;5069743;28;20070;-66
2024/01/26 06:25:20;;;;;;;0.20;0.20;;;11.90;75.30;;;;;;5055442;28;20598;-62
2024/01/26 06:27:49;;;;;;;0.20;0.20;;;11.90;75.30;;;;;;5069427;28;20135;-64
2024/01/26 06:30:17;;;;;;;0.20;0.20;;;12.00;75.20;;;;;;5056700;28;20080;-64
2024/01/26 06:32:46;;;;;;;0.20;0.20;;;12.00;75.10;;;;;;5067683;28;20072;-64
2024/01/26 06:35:15;;;;;;;0.20;0.20;;;12.10;75.10;;;;;;5068416;28;20067;-56
2024/01/26 06:37:43;;;;;;;0.20;0.20;;;12.10;75.10;;;;;;5070188;28;20476;-58
2024/01/26 06:40:14;;;;;;;0.20;0.20;;;12.10;75.60;;;;;;5067704;28;20139;-62
2024/01/26 06:42:42;;;;;;;0.20;0.20;;;12.20;75.80;;;;;;5071103;28;20064;-60
2024/01/26 06:45:12;;;;;;;0.20;0.20;;;12.20;76.00;;;;;;5057909;28;20060;-59
2024/01/26 06:47:41;;;;;;;0.20;0.20;;;12.30;76.10;;;;;;5064053;28;20056;-61
2024/01/26 06:50:09;;;;;;;0.20;0.20;;;12.40;76.20;;;;;;5063575;28;20060;-59
2024/01/26 06:52:41;;;;;;;0.20;0.20;;;12.40;75.90;;;;;;5031964;28;20056;-56
2024/01/26 06:55:17;;;;;;;0.20;0.20;;;12.50;75.80;;;;;;5058001;28;20139;-51
2024/01/26 06:57:57;;;;;;;0.20;0.20;;;12.50;75.50;;;;;;5060092;28;20063;-58
2024/01/26 07:00:29;;;;;;;0.20;0.20;;;12.50;75.30;;;;;;5060754;28;20347;-55
2024/01/26 07:02:59;;;;;;;0.20;0.20;;;12.50;75.30;;;;;;5059964;28;20537;-60
2024/01/26 07:05:27;;;;;;;0.20;0.20;;;12.50;75.40;;;;;;5060616;28;20040;-60
2024/01/26 07:07:56;;;;;;;0.20;0.20;;;12.50;75.40;;;;;;5064150;28;20718;-60
2024/01/26 07:10:26;;;;;;;0.20;0.20;;;12.50;75.40;;;;;;5060967;28;20513;-58
2024/01/26 07:12:55;;;;;;;0.20;0.20;;;12.60;75.50;;;;;;5063375;28;20048;-59
2024/01/26 07:15:23;;;;;;;0.20;0.20;;;12.60;75.50;;;;;;5060485;28;20064;-59
2024/01/26 07:17:51;;;;;;;0.20;0.20;;;12.60;75.50;;;;;;5064341;28;20087;-54
2024/01/26 07:20:20;;;;;;;0.20;0.20;;;12.70;75.50;;;;;;5066221;28;20063;-61
2024/01/26 07:22:49;;;;;;;0.20;0.20;;;12.80;75.40;;;;;;5063632;28;20056;-60
2024/01/26 07:25:19;;;;;;;0.20;0.20;;;12.80;75.40;;;;;;5060316;28;20059;-60
2024/01/26 07:27:49;;;;;;;0.20;0.20;;;12.80;75.60;;;;;;5082800;28;20044;-59
2024/01/26 07:30:18;;;;;;;0.20;0.20;;;12.80;75.10;;;;;;5058833;28;20209;-61
2024/01/26 07:32:47;;;;;;;0.20;0.20;;;12.90;75.30;;;;;;5060389;28;20064;-59
2024/01/26 07:35:15;;;;;;;0.20;0.20;;;12.90;75.30;;;;;;5057213;28;20391;-58
2024/01/26 07:37:44;;;;;;;0.20;0.20;;;12.90;75.30;;;;;;5064893;28;20067;-60
2024/01/26 07:40:13;;;;;;;0.20;0.20;;;12.90;75.30;;;;;;5066324;28;20070;-59
2024/01/26 07:42:41;;;;;;;0.20;0.20;;;13.00;75.30;;;;;;5061153;28;20075;-56
2024/01/26 07:45:13;;;;;;;0.20;0.20;;;13.00;75.20;;;;;;5056757;28;20048;-51
2024/01/26 07:47:42;;;;;;;0.20;0.20;;;13.00;75.30;;;;;;5064738;28;20060;-58
2024/01/26 07:50:11;;;;;;;0.30;0.30;;;13.00;75.50;;;;;;5062061;27;20064;-51
2024/01/26 07:52:40;;;;;;;0.20;0.20;;;13.00;76.40;;;;;;5058063;28;20837;-56
2024/01/26 07:55:10;;;;;;;0.20;0.20;;;13.00;75.60;;;;;;5051515;28;20135;-55
2024/01/26 07:57:38;;;;;;;0.20;0.20;;;13.00;75.50;;;;;;5064181;28;20059;-56
2024/01/26 08:00:08;;;;;;;0.20;0.20;;;12.90;75.40;;;;;;5061477;28;20059;-53
2024/01/26 08:02:39;;;;;;;0.20;0.20;;;12.90;75.70;;;;;;5061936;28;20088;-57
2024/01/26 08:05:08;;;;;;;0.20;0.20;;;12.90;75.80;;;;;;5070061;27;20037;-56
2024/01/26 08:07:37;;;;;;;0.20;0.20;;;13.00;76.00;;;;;;5029224;28;20487;-56
2024/01/26 08:10:07;;;;;;;0.20;0.20;;;13.00;76.10;;;;;;5028948;28;20053;-51
2024/01/26 08:12:35;;;;;;;7.38;3.35;;;13.00;76.30;;;;;;5025001;28;20168;-51
2024/01/26 08:15:12;;;;;;;9.60;2.08;;;13.00;76.30;;;;;;5024482;28;20088;-52
2024/01/26 08:17:42;;;;;;;4.38;2.10;;;13.10;76.40;;;;;;5026841;28;20470;-54
2024/01/26 08:20:12;;;;;;;3.50;2.38;;;13.10;76.40;;;;;;5028321;28;20056;-54
2024/01/26 08:22:43;;;;;;;3.60;1.85;;;13.20;76.80;;;;;;5025593;28;20061;-51
2024/01/26 08:25:11;;;;;;;2.45;1.48;;;13.20;76.90;;;;;;5020262;28;20167;-52
2024/01/26 08:27:40;;;;;;;3.08;1.85;;;13.30;76.80;;;;;;5030268;28;20151;-54
2024/01/26 08:30:09;;;;;;;3.75;2.10;;;13.50;76.70;;;;;;5023830;28;20041;-59
2024/01/26 08:32:39;;;;;;;1.70;1.45;;;13.50;76.70;;;;;;5028262;28;20060;-57
2024/01/26 08:35:11;;;;;;;2.95;1.67;;;13.60;76.70;;;;;;5017421;28;20057;-59
2024/01/26 08:37:40;;;;;;;2.40;1.48;;;13.60;76.50;;;;;;5029119;28;20057;-58
2024/01/26 08:40:10;;;;;;;7.63;1.83;;;13.70;76.60;;;;;;5025205;28;20061;-57
2024/01/26 08:42:38;;;;;;;13.13;2.08;;;13.80;76.20;;;;;;5028203;28;20123;-61
2024/01/26 08:45:08;;;;;;;8.05;3.63;;;13.80;76.10;;;;;;5020368;28;20744;-60
2024/01/26 08:47:37;;;;;;;6.90;3.92;;;13.80;75.70;;;;;;5028718;28;20148;-58
2024/01/26 08:50:06;;;;;;;6.57;2.95;;;13.80;75.80;;;;;;5029386;28;20159;-59
2024/01/26 08:52:36;;;;;;;10.07;3.80;;;13.80;76.10;;;;;;5029863;28;20450;-57
2024/01/26 08:55:06;;;;;;;4.30;2.67;;;13.80;76.20;;;;;;5021146;28;20405;-58
2024/01/26 08:57:34;;;;;;;5.53;3.03;;;13.80;75.90;;;;;;5023281;28;20402;-59
2024/01/26 09:00:08;;;;;;;5.57;2.35;;;13.80;75.70;;;;;;5027003;28;20060;-60
2024/01/26 09:02:37;;;;;;;9.50;2.85;;;13.80;75.80;;;;;;5026216;28;20194;-60
2024/01/26 09:05:07;;;;;;;5.60;2.67;;;13.80;75.50;;;;;;5020500;28;20146;-54
2024/01/26 09:07:37;;;;;;;5.28;2.88;;;13.70;75.60;;;;;;5066087;28;22030;-56
2024/01/26 09:10:06;;;;;;;8.88;4.10;;;13.70;75.80;;;;;;5061966;28;20044;-56
2024/01/26 09:12:35;;;;;;;5.97;3.08;;;13.70;75.90;;;;;;5059283;28;20051;-61
2024/01/26 09:15:05;;;;;;;6.95;3.42;;;13.70;76.10;;;;;;5058909;28;20604;-61
2024/01/26 09:17:33;;;;;;;8.27;3.00;;;13.70;76.60;;;;;;5062122;28;20056;-58
2024/01/26 09:20:02;;;;;;;7.82;3.17;;;13.80;76.10;;;;;;5062655;28;20087;-56
2024/01/26 09:22:32;;;;;;;4.38;2.42;;;13.80;75.90;;;;;;5060690;28;20040;-60
2024/01/26 09:25:03;;;;;;;9.23;3.13;;;13.90;75.90;;;;;;5058187;28;20059;-59
2024/01/26 09:27:32;;;;;;;8.77;4.15;;;13.90;75.90;;;;;;5057845;28;20456;-60
2024/01/26 09:30:01;;;;;;;6.10;2.30;;;13.90;76.00;;;;;;5063332;28;20056;-59
2024/01/26 09:32:30;;;;;;;11.13;2.67;;;14.00;75.80;;;;;;5057894;28;20065;-58
2024/01/26 09:34:59;;;;;;;8.70;2.50;;;13.90;75.50;;;;;;5057648;28;20062;-61
2024/01/26 09:37:27;;;;;;;5.05;2.45;;;14.00;76.70;;;;;;5055072;28;20586;-63
2024/01/26 09:39:56;;;;;;;7.28;3.42;;;14.00;76.10;;;;;;5065496;28;20068;-62
2024/01/26 09:42:26;;;;;;;3.17;2.03;;;14.10;76.20;;;;;;5056400;28;20045;-61
2024/01/26 09:44:55;;;;;;;3.42;2.10;;;14.20;76.30;;;;;;5061646;28;20127;-60
2024/01/26 09:47:27;;;;;;;8.05;2.67;;;14.20;75.80;;;;;;5060210;28;20063;-60
2024/01/26 09:49:57;;;;;;;5.32;2.35;;;14.20;75.50;;;;;;5062755;28;20064;-57
2024/01/26 09:52:26;;;;;;;3.63;2.47;;;14.30;75.90;;;;;;5061281;27;20056;-58
2024/01/26 09:54:55;;;;;;;14.40;2.80;;;14.30;75.60;;;;;;5052645;28;20596;-58
2024/01/26 09:57:26;;;;;;;6.03;3.38;;;14.30;75.20;;;;;;5044287;28;20905;-55
2024/01/26 09:59:55;;;;;;;8.13;2.80;;;14.20;75.30;;;;;;5062981;28;20060;-56
2024/01/26 10:02:23;;;;;;;6.45;2.65;;;14.20;75.40;;;;;;5061426;28;20078;-52
2024/01/26 10:04:52;;;;;;;5.35;2.25;;;14.20;75.30;;;;;;5062234;28;20059;-58
2024/01/26 10:07:21;;;;;;;3.85;2.22;;;14.20;75.30;;;;;;5059642;28;20131;-54
2024/01/26 10:09:49;;;;;;;7.40;2.67;;;14.20;75.20;;;;;;5063407;28;20055;-56
2024/01/26 10:12:24;;;;;;;6.63;2.20;;;14.20;75.10;;;;;;5059572;28;20407;-59
2024/01/26 10:15:03;;;;;;;4.40;2.67;;;14.20;75.00;;;;;;5060231;28;20116;-59
2024/01/26 10:17:32;;;;;;;4.88;2.35;;;14.10;75.00;;;;;;5050969;28;20043;-54
2024/01/26 10:20:14;;;;;;;2.53;1.50;;;14.10;75.10;;;;;;5074674;27;20048;-56
2024/01/26 10:22:43;;;;;;;4.03;2.33;;;14.20;75.50;;;;;;5057346;28;20062;-60
2024/01/26 10:25:13;;;;;;;3.40;2.50;;;14.30;75.50;;;;;;5051342;28;20111;-61
2024/01/26 10:27:43;;;;;;;4.28;2.28;;;14.40;75.50;;;;;;5057970;28;20754;-56
2024/01/26 10:30:13;;;;;;;7.13;2.83;;;14.40;75.00;;;;;;5059667;28;21571;-55
2024/01/26 10:32:44;;;;;;;4.13;1.92;;;14.30;75.00;;;;;;5061392;28;20866;-58
2024/01/26 10:35:17;;;;;;;3.78;2.28;;;14.40;75.40;;;;;;5055908;28;20125;-58
2024/01/26 10:37:46;;;;;;;2.30;1.63;;;14.40;75.30;;;;;;5061077;28;20422;-61
2024/01/26 10:40:17;;;;;;;3.33;1.70;;;14.40;75.00;;;;;;5058853;28;20523;-61
2024/01/26 10:42:48;;;;;;;18.85;2.22;;;14.30;74.70;;;;;;5050535;28;20056;-60
2024/01/26 10:45:17;;;;;;;7.03;2.55;;;14.20;74.60;;;;;;5053004;28;20079;-55
2024/01/26 10:47:48;;;;;;;20.73;2.40;;;14.10;74.60;;;;;;5061783;28;20052;-58
2024/01/26 10:50:17;;;;;;;2.58;1.95;;;14.10;75.00;;;;;;5064811;28;20071;-55
2024/01/26 10:52:49;;;;;;;7.85;2.53;;;14.10;75.20;;;;;;5062757;28;20055;-55
2024/01/26 10:55:19;;;;;;;4.47;2.22;;;14.20;75.70;;;;;;5072667;27;20056;-54
2024/01/26 10:57:48;;;;;;;10.50;2.78;;;14.40;75.60;;;;;;5058803;28;20473;-53
2024/01/26 11:00:18;;;;;;;4.35;2.33;;;14.50;75.40;;;;;;5060117;28;20409;-57
2024/01/26 11:02:46;;;;;;;4.95;2.53;;;14.50;75.50;;;;;;5066648;28;20063;-55
2024/01/26 11:05:17;;;;;;;5.50;2.38;;;14.70;75.70;;;;;;5056798;28;20121;-54
2024/01/26 11:07:45;;;;;;;5.70;2.45;;;14.70;75.10;;;;;;5062781;28;20080;-56
2024/01/26 11:10:20;;;;;;;7.70;2.33;;;14.60;74.70;;;;;;5057974;28;20102;-54
2024/01/26 11:13:00;;;;;;;2.85;2.00;;;14.60;74.30;;;;;;5061590;28;20064;-59
2024/01/26 11:15:30;;;;;;;3.17;2.00;;;14.50;74.60;;;;;;5052265;27;20063;-59
2024/01/26 11:17:59;;;;;;;4.07;2.42;;;14.50;74.60;;;;;;5065652;28;20051;-60
2024/01/26 11:20:31;;;;;;;9.13;2.50;;;14.50;74.50;;;;;;5060996;28;20060;-55
2024/01/26 11:23:01;;;;;;;3.40;2.33;;;14.40;74.70;;;;;;5060567;28;20052;-57
2024/01/26 11:25:35;;;;;;;5.15;2.28;;;14.40;75.40;;;;;;5055615;28;20052;-56
2024/01/26 11:28:07;;;;;;;7.15;2.88;;;14.50;75.30;;;;;;5066611;28;20490;-55
2024/01/26 11:30:36;;;;;;;28.88;7.07;;;14.50;75.30;;;;;;5061771;28;21125;-61
2024/01/26 11:33:15;;;;;;;7.20;2.80;;;14.60;76.80;;;;;;5058997;27;20098;-57
2024/01/26 11:35:44;;;;;;;7.35;3.13;;;14.80;76.30;;;;;;5063040;28;20161;-58
2024/01/26 11:38:13;;;;;;;5.28;2.63;;;14.80;75.50;;;;;;5065646;28;21181;-61
2024/01/26 11:40:41;;;;;;;6.40;2.97;;;14.80;75.20;;;;;;5065563;28;20056;-60
2024/01/26 11:43:12;;;;;;;7.15;2.97;;;14.90;75.20;;;;;;5056222;28;20052;-55
2024/01/26 11:45:46;;;;;;;8.88;2.85;;;14.80;74.70;;;;;;5066215;28;20147;-59
2024/01/26 11:48:16;;;;;;;15.30;3.78;;;14.80;75.40;;;;;;5056394;28;20131;-56
2024/01/26 11:50:47;;;;;;;7.68;3.25;;;14.90;75.20;;;;;;5063641;28;20421;-49
2024/01/26 11:53:17;;;;;;;5.05;2.97;;;14.80;74.70;;;;;;5059474;28;20072;-55
2024/01/26 11:55:46;;;;;;;5.97;2.75;;;14.70;74.70;;;;;;5063047;28;20188;-58
2024/01/26 11:58:19;;;;;;;5.90;2.92;;;14.70;75.10;;;;;;5070142;28;20044;-58
2024/01/26 12:00:47;;;;;;;4.50;2.35;;;14.70;75.50;;;;;;5066196;28;20124;-53
2024/01/26 12:03:20;;;;;;;9.48;3.42;;;14.80;75.90;;;;;;5057675;28;20059;-53
2024/01/26 12:05:52;;;;;;;6.83;3.53;;;14.90;76.00;;;;;;5058933;28;20056;-53
2024/01/26 12:08:23;;;;;;;12.63;3.25;;;15.00;76.30;;;;;;5059731;28;20051;-50
2024/01/26 12:10:51;;;;;;;8.48;3.15;;;15.20;76.20;;;;;;5066117;28;20056;-55
2024/01/26 12:13:21;;;;;;;9.40;2.95;;;15.30;75.70;;;;;;5055360;28;20494;-53
2024/01/26 12:15:51;;;;;;;4.88;1.98;;;15.30;75.20;;;;;;5062705;28;20067;-55
2024/01/26 12:18:20;;;;;;;10.15;3.30;;;15.30;74.80;;;;;;5061461;28;20076;-59
2024/01/26 12:20:49;;;;;;;8.02;2.45;;;15.40;75.40;;;;;;5060779;28;20052;-58
2024/01/26 12:23:18;;;;;;;9.85;3.08;;;15.40;75.00;;;;;;5060961;28;20087;-58
2024/01/26 12:25:49;;;;;;;5.40;2.65;;;15.50;75.40;;;;;;5057869;28;20067;-59
2024/01/26 12:28:20;;;;;;;2.92;2.38;;;15.60;75.60;;;;;;5059416;28;20120;-58
2024/01/26 12:30:51;;;;;;;7.80;2.45;;;15.70;75.50;;;;;;5057975;28;20131;-62
2024/01/26 12:33:24;;;;;;;8.13;3.55;;;15.70;75.00;;;;;;5055317;28;20230;-58
2024/01/26 12:35:52;;;;;;;8.77;3.28;;;15.90;75.60;;;;;;5063938;28;20135;-60
2024/01/26 12:38:21;;;;;;;6.32;2.67;;;16.10;75.60;;;;;;5056962;28;20251;-59
2024/01/26 12:40:50;;;;;;;6.97;2.75;;;16.20;75.20;;;;;;5059357;28;20047;-60
2024/01/26 12:43:19;;;;;;;6.15;2.72;;;16.20;74.60;;;;;;5074412;27;20052;-60
2024/01/26 12:45:47;;;;;;;3.58;2.35;;;16.20;74.60;;;;;;5066438;28;20058;-60
2024/01/26 12:48:19;;;;;;;7.90;2.25;;;16.20;74.30;;;;;;5061547;28;20501;-60
2024/01/26 12:50:48;;;;;;;9.85;2.30;;;16.20;73.80;;;;;;5063228;28;20122;-58
2024/01/26 12:53:17;;;;;;;3.47;2.10;;;16.20;73.60;;;;;;5057832;28;20067;-59
2024/01/26 12:55:46;;;;;;;3.95;1.75;;;16.10;73.40;;;;;;5055500;28;20048;-58